createdAt,value
2023-04-23T00:01:17.413Z,76
2023-04-23T00:04:17.500Z,76
2023-04-23T00:07:17.422Z,76
2023-04-23T00:10:17.408Z,77
2023-04-23T00:13:17.412Z,77
2023-04-23T00:16:17.396Z,77
2023-04-23T00:19:17.412Z,77
2023-04-23T00:22:17.405Z,77
2023-04-23T00:25:17.396Z,77
2023-04-23T00:28:17.403Z,77
2023-04-23T00:31:17.435Z,77
2023-04-23T00:34:17.389Z,77
2023-04-23T00:37:17.397Z,77
2023-04-23T00:40:17.392Z,77
2023-04-23T00:43:17.388Z,77
2023-04-23T00:46:17.571Z,77
2023-04-23T00:49:17.409Z,78
2023-04-23T00:52:17.411Z,78
2023-04-23T00:55:17.383Z,78
2023-04-23T00:58:17.420Z,78
2023-04-23T01:01:17.411Z,78
2023-04-23T01:04:17.593Z,78
2023-04-23T01:07:17.392Z,78
2023-04-23T01:10:17.376Z,78
2023-04-23T01:13:17.631Z,78
2023-04-23T01:16:17.454Z,78
2023-04-23T01:19:17.493Z,78
2023-04-23T01:22:17.481Z,78
2023-04-23T01:25:17.411Z,78
2023-04-23T01:28:17.492Z,79
2023-04-23T01:31:17.435Z,79
2023-04-23T01:34:17.460Z,79
2023-04-23T01:37:17.509Z,79
2023-04-23T01:40:17.358Z,79
2023-04-23T01:43:17.410Z,79
2023-04-23T01:46:17.376Z,79
2023-04-23T01:49:17.402Z,79
2023-04-23T01:52:17.373Z,79
2023-04-23T01:55:17.432Z,79
2023-04-23T01:58:17.371Z,79
2023-04-23T02:01:17.387Z,79
2023-04-23T02:04:17.459Z,79
2023-04-23T02:07:17.369Z,79
2023-04-23T02:10:17.366Z,79
2023-04-23T02:13:17.389Z,79
2023-04-23T02:16:17.391Z,79
2023-04-23T02:19:17.360Z,80
2023-04-23T02:22:17.366Z,80
2023-04-23T02:25:17.356Z,80
2023-04-23T02:28:17.362Z,80
2023-04-23T02:31:17.370Z,80
2023-04-23T02:34:17.347Z,80
2023-04-23T02:37:17.346Z,80
2023-04-23T02:40:17.368Z,80
2023-04-23T02:43:17.369Z,80
2023-04-23T02:46:17.382Z,80
2023-04-23T02:49:17.333Z,80
2023-04-23T02:52:17.355Z,80
2023-04-23T02:55:17.344Z,80
2023-04-23T02:58:17.338Z,80
2023-04-23T03:01:17.431Z,80
2023-04-23T03:04:17.370Z,80
2023-04-23T03:07:17.348Z,80
2023-04-23T03:10:17.337Z,80
2023-04-23T03:13:17.327Z,80
2023-04-23T03:16:17.348Z,80
2023-04-23T03:19:17.317Z,80
2023-04-23T03:22:17.333Z,81
2023-04-23T03:25:17.328Z,81
2023-04-23T03:28:17.348Z,81
2023-04-23T03:31:17.405Z,81
2023-04-23T03:34:17.337Z,81
2023-04-23T03:37:17.336Z,81
2023-04-23T03:40:17.355Z,81
2023-04-23T03:43:17.346Z,81
2023-04-23T03:46:17.365Z,81
2023-04-23T03:49:17.332Z,81
2023-04-23T03:52:17.343Z,81
2023-04-23T03:55:17.329Z,81
2023-04-23T03:58:17.329Z,81
2023-04-23T04:01:17.336Z,81
2023-04-23T04:04:17.469Z,81
2023-04-23T04:07:17.328Z,81
2023-04-23T04:10:17.320Z,81
2023-04-23T04:13:17.324Z,81
2023-04-23T04:16:17.363Z,81
2023-04-23T04:19:17.320Z,81
2023-04-23T04:22:17.322Z,81
2023-04-23T04:25:17.313Z,81
2023-04-23T04:28:17.313Z,81
2023-04-23T04:31:17.343Z,81
2023-04-23T04:34:17.330Z,81
2023-04-23T04:37:17.306Z,81
2023-04-23T04:40:17.323Z,81
2023-04-23T04:43:17.319Z,81
2023-04-23T04:46:17.339Z,81
2023-04-23T04:49:17.322Z,81
2023-04-23T04:52:17.312Z,81
2023-04-23T04:55:17.317Z,81
2023-04-23T04:58:17.301Z,81
2023-04-23T05:01:17.361Z,81
2023-04-23T05:04:17.393Z,81
2023-04-23T05:07:17.303Z,81
2023-04-23T05:10:17.297Z,82
2023-04-23T05:13:17.308Z,82
2023-04-23T05:16:17.358Z,82
2023-04-23T05:19:17.309Z,82
2023-04-23T05:22:17.306Z,82
2023-04-23T05:25:17.300Z,82
2023-04-23T05:28:17.317Z,82
2023-04-23T05:31:17.306Z,82
2023-04-23T05:34:17.302Z,82
2023-04-23T05:37:17.294Z,82
2023-04-23T05:40:17.314Z,82
2023-04-23T05:43:17.289Z,82
2023-04-23T05:46:17.329Z,82
2023-04-23T05:49:17.279Z,82
2023-04-23T05:52:17.288Z,82
2023-04-23T05:55:17.315Z,82
2023-04-23T05:58:17.290Z,82
2023-04-23T06:01:17.274Z,82
2023-04-23T06:04:17.469Z,82
2023-04-23T06:07:17.284Z,82
2023-04-23T06:10:17.297Z,82
2023-04-23T06:13:17.281Z,82
2023-04-23T06:16:17.289Z,82
2023-04-23T06:19:17.273Z,82
2023-04-23T06:22:17.274Z,82
2023-04-23T06:25:17.294Z,82
2023-04-23T06:28:17.294Z,82
2023-04-23T06:34:17.266Z,82
2023-04-23T06:37:17.280Z,82
2023-04-23T06:40:17.280Z,82
2023-04-23T06:43:17.298Z,82
2023-04-23T06:46:17.298Z,82
2023-04-23T06:49:17.276Z,82
2023-04-23T06:52:17.280Z,82
2023-04-23T06:55:17.289Z,82
2023-04-23T06:58:17.283Z,81
2023-04-23T07:01:17.290Z,81
2023-04-23T07:04:17.351Z,81
2023-04-23T07:07:17.282Z,81
2023-04-23T07:10:18.162Z,81
2023-04-23T07:13:17.445Z,81
2023-04-23T07:16:18.099Z,81
2023-04-23T07:19:17.293Z,81
2023-04-23T07:22:17.297Z,81
2023-04-23T07:25:17.293Z,81
2023-04-23T07:28:17.288Z,80
2023-04-23T07:31:17.292Z,80
2023-04-23T07:34:17.302Z,80
2023-04-23T07:37:17.317Z,80
2023-04-23T07:40:17.442Z,80
2023-04-23T07:43:17.291Z,80
2023-04-23T07:46:17.348Z,80
2023-04-23T07:49:17.286Z,80
2023-04-23T07:52:17.283Z,80
2023-04-23T07:55:17.294Z,80
2023-04-23T07:58:17.283Z,80
2023-04-23T08:01:17.287Z,79
2023-04-23T08:04:17.436Z,79
2023-04-23T08:07:17.289Z,79
2023-04-23T08:10:17.287Z,79
2023-04-23T08:13:17.284Z,79
2023-04-23T08:16:17.285Z,79
2023-04-23T08:19:17.293Z,79
2023-04-23T08:22:17.270Z,79
2023-04-23T08:25:17.276Z,79
2023-04-23T08:28:17.297Z,78
2023-04-23T08:31:25.473Z,78
2023-04-23T08:34:17.285Z,78
2023-04-23T08:37:27.497Z,78
2023-04-23T08:40:17.262Z,78
2023-04-23T08:43:17.275Z,78
2023-04-23T08:46:17.282Z,78
2023-04-23T08:49:17.267Z,77
2023-04-23T08:52:17.264Z,77
2023-04-23T08:55:17.272Z,77
2023-04-23T08:58:17.277Z,77
2023-04-23T09:01:17.334Z,77
2023-04-23T09:04:17.262Z,77
2023-04-23T09:07:17.261Z,77
2023-04-23T09:10:18.716Z,77
2023-04-23T09:13:17.272Z,76
2023-04-23T09:16:17.294Z,76
2023-04-23T09:19:17.272Z,76
2023-04-23T09:22:17.266Z,76
2023-04-23T09:25:17.266Z,76
2023-04-23T09:28:17.274Z,75
2023-04-23T09:31:17.265Z,75
2023-04-23T09:34:17.268Z,75
2023-04-23T09:37:17.256Z,74
2023-04-23T09:40:17.255Z,75
2023-04-23T09:43:17.269Z,75
2023-04-23T09:46:17.285Z,74
2023-04-23T09:49:17.260Z,74
2023-04-23T09:52:17.255Z,74
2023-04-23T09:55:17.256Z,74
2023-04-23T09:58:17.249Z,74
2023-04-23T10:01:17.246Z,73
2023-04-23T10:04:17.409Z,73
2023-04-23T10:07:19.410Z,72
2023-04-23T10:13:17.249Z,72
2023-04-23T10:16:22.089Z,72
2023-04-23T10:19:17.237Z,72
2023-04-23T10:22:18.960Z,72
2023-04-23T10:25:17.222Z,71
2023-04-23T10:28:17.264Z,71
2023-04-23T10:31:17.243Z,71
2023-04-23T10:34:17.249Z,71
2023-04-23T10:37:17.205Z,71
2023-04-23T10:40:17.219Z,71
2023-04-23T10:43:17.225Z,71
2023-04-23T10:46:17.240Z,71
2023-04-23T10:49:17.233Z,71
2023-04-23T10:52:19.221Z,70
2023-04-23T10:55:17.214Z,70
2023-04-23T10:58:17.220Z,70
2023-04-23T11:01:17.207Z,70
2023-04-23T11:04:17.255Z,70
2023-04-23T11:07:17.200Z,70
2023-04-23T11:10:17.224Z,70
2023-04-23T11:13:17.191Z,69
2023-04-23T11:16:17.238Z,69
2023-04-23T11:19:19.159Z,69
2023-04-23T11:22:17.201Z,69
2023-04-23T11:25:17.203Z,69
2023-04-23T11:28:17.205Z,69
2023-04-23T11:31:17.221Z,69
2023-04-23T11:34:17.203Z,69
2023-04-23T11:37:17.195Z,68
2023-04-23T11:40:17.216Z,68
2023-04-23T11:43:17.218Z,68
2023-04-23T11:46:17.224Z,68
2023-04-23T11:49:17.198Z,68
2023-04-23T11:52:17.212Z,68
2023-04-23T11:55:17.221Z,68
2023-04-23T11:58:17.217Z,68
2023-04-23T12:01:17.238Z,69
2023-04-23T12:04:17.392Z,68
2023-04-23T12:07:26.116Z,68
2023-04-23T12:10:17.192Z,68
2023-04-23T12:13:17.201Z,68
2023-04-23T12:16:17.228Z,68
2023-04-23T12:19:17.216Z,68
2023-04-23T12:22:17.259Z,68
2023-04-23T12:25:17.198Z,68
2023-04-23T12:28:17.193Z,68
2023-04-23T12:31:17.205Z,68
2023-04-23T12:34:17.205Z,68
2023-04-23T12:37:17.196Z,68
2023-04-23T12:40:17.214Z,68
2023-04-23T12:43:17.217Z,69
2023-04-23T12:46:17.229Z,69
2023-04-23T12:49:17.219Z,68
2023-04-23T12:52:17.218Z,68
2023-04-23T12:55:17.214Z,68
2023-04-23T12:58:17.216Z,68
2023-04-23T13:04:17.194Z,68
2023-04-23T13:07:17.207Z,68
2023-04-23T13:10:17.221Z,68
2023-04-23T13:13:17.209Z,68
2023-04-23T13:16:17.214Z,68
2023-04-23T13:19:17.636Z,68
2023-04-23T13:22:17.200Z,68
2023-04-23T13:25:17.215Z,68
2023-04-23T13:28:17.204Z,67
2023-04-23T13:31:17.252Z,67
2023-04-23T13:34:17.210Z,66
2023-04-23T13:37:17.197Z,66
2023-04-23T13:40:17.202Z,66
2023-04-23T13:43:17.188Z,65
2023-04-23T13:46:17.248Z,65
2023-04-23T13:49:17.199Z,64
2023-04-23T13:52:17.194Z,64
2023-04-23T13:55:17.182Z,64
2023-04-23T13:58:17.188Z,63
2023-04-23T14:01:17.190Z,63
2023-04-23T14:04:17.205Z,62
2023-04-23T14:07:17.196Z,62
2023-04-23T14:10:17.259Z,62
2023-04-23T14:13:17.416Z,61
2023-04-23T14:16:17.193Z,61
2023-04-23T14:19:17.312Z,61
2023-04-23T14:22:17.183Z,61
2023-04-23T14:25:17.195Z,61
2023-04-23T14:28:17.175Z,61
2023-04-23T14:34:17.179Z,60
2023-04-23T14:37:17.199Z,60
2023-04-23T14:40:17.173Z,59
2023-04-23T14:43:17.191Z,59
2023-04-23T14:46:17.200Z,59
2023-04-23T14:49:17.182Z,59
2023-04-23T14:52:17.176Z,59
2023-04-23T14:55:17.209Z,59
2023-04-23T14:58:17.184Z,58
2023-04-23T15:01:17.175Z,58
2023-04-23T15:04:17.250Z,58
2023-04-23T15:07:17.168Z,58
2023-04-23T15:10:17.157Z,58
2023-04-23T15:13:17.158Z,58
2023-04-23T15:16:17.228Z,58
2023-04-23T15:19:17.156Z,58
2023-04-23T15:22:17.176Z,58
2023-04-23T15:25:17.169Z,57
2023-04-23T15:28:17.168Z,57
2023-04-23T15:31:17.167Z,57
2023-04-23T15:34:17.157Z,57
2023-04-23T15:37:17.156Z,57
2023-04-23T15:40:17.155Z,57
2023-04-23T15:43:17.167Z,57
2023-04-23T15:46:17.265Z,57
2023-04-23T15:49:17.146Z,57
2023-04-23T15:52:17.154Z,57
2023-04-23T15:55:17.196Z,57
2023-04-23T15:58:17.157Z,57
2023-04-23T16:01:17.187Z,56
2023-04-23T16:04:17.256Z,57
2023-04-23T16:10:17.142Z,56
2023-04-23T16:13:17.128Z,56
2023-04-23T16:16:17.142Z,56
2023-04-23T16:19:17.151Z,56
2023-04-23T16:22:17.133Z,56
2023-04-23T16:25:17.125Z,56
2023-04-23T16:28:17.126Z,57
2023-04-23T16:31:17.208Z,57
2023-04-23T16:34:17.150Z,57
2023-04-23T16:37:17.123Z,57
2023-04-23T16:40:17.129Z,57
2023-04-23T16:43:17.135Z,58
2023-04-23T16:46:17.150Z,59
2023-04-23T16:49:17.125Z,60
2023-04-23T16:52:17.116Z,60
2023-04-23T16:55:17.121Z,61
2023-04-23T16:58:17.124Z,62
2023-04-23T17:01:17.182Z,63
2023-04-23T17:04:17.532Z,63
2023-04-23T17:07:17.115Z,64
2023-04-23T17:10:17.119Z,65
2023-04-23T17:13:17.110Z,65
2023-04-23T17:16:17.122Z,65
2023-04-23T17:19:17.111Z,66
2023-04-23T17:22:17.106Z,66
2023-04-23T17:25:17.110Z,67
2023-04-23T17:28:17.117Z,67
2023-04-23T17:31:17.118Z,67
2023-04-23T17:34:17.111Z,68
2023-04-23T17:37:17.116Z,68
2023-04-23T17:40:17.558Z,68
2023-04-23T17:43:17.117Z,69
2023-04-23T17:46:17.132Z,69
2023-04-23T17:49:17.106Z,69
2023-04-23T17:52:17.106Z,69
2023-04-23T17:55:17.112Z,70
2023-04-23T18:01:17.135Z,70
2023-04-23T18:04:17.785Z,70
2023-04-23T18:07:17.109Z,71
2023-04-23T18:10:17.099Z,71
2023-04-23T18:13:17.086Z,71
2023-04-23T18:16:17.146Z,71
2023-04-23T18:19:17.100Z,71
2023-04-23T18:22:17.098Z,71
2023-04-23T18:25:17.093Z,72
2023-04-23T18:28:17.092Z,72
2023-04-23T18:31:17.143Z,72
2023-04-23T18:34:17.105Z,72
2023-04-23T18:37:17.093Z,72
2023-04-23T18:40:17.089Z,72
2023-04-23T18:43:17.089Z,72
2023-04-23T18:46:17.092Z,72
2023-04-23T18:49:17.089Z,73
2023-04-23T18:52:17.083Z,73
2023-04-23T18:55:17.072Z,73
2023-04-23T18:58:17.073Z,73
2023-04-23T19:01:17.096Z,73
2023-04-23T19:04:17.145Z,73
2023-04-23T19:07:17.080Z,73
2023-04-23T19:10:17.091Z,73
2023-04-23T19:13:17.080Z,73
2023-04-23T19:16:17.074Z,73
2023-04-23T19:19:17.067Z,74
2023-04-23T19:22:17.074Z,74
2023-04-23T19:25:17.053Z,74
2023-04-23T19:28:17.062Z,74
2023-04-23T19:31:17.220Z,74
2023-04-23T19:34:17.050Z,74
2023-04-23T19:37:17.052Z,74
2023-04-23T19:40:17.053Z,74
2023-04-23T19:43:17.070Z,74
2023-04-23T19:46:17.068Z,74
2023-04-23T19:49:17.052Z,74
2023-04-23T19:52:17.079Z,75
2023-04-23T19:55:17.053Z,75
2023-04-23T19:58:17.043Z,75
2023-04-23T20:01:17.118Z,75
2023-04-23T20:04:17.124Z,75
2023-04-23T20:07:17.060Z,75
2023-04-23T20:10:17.587Z,75
2023-04-23T20:13:17.048Z,75
2023-04-23T20:16:17.061Z,75
2023-04-23T20:19:17.056Z,76
2023-04-23T20:22:17.069Z,76
2023-04-23T20:25:17.038Z,76
2023-04-23T20:28:17.042Z,76
2023-04-23T20:31:17.692Z,76
2023-04-23T20:37:17.055Z,76
2023-04-23T20:40:17.044Z,76
2023-04-23T20:43:17.039Z,76
2023-04-23T20:46:17.054Z,76
2023-04-23T20:49:17.040Z,76
2023-04-23T20:52:17.048Z,76
2023-04-23T20:55:17.041Z,76
2023-04-23T20:58:17.029Z,76
2023-04-23T21:01:17.083Z,77
2023-04-23T21:04:17.268Z,77
2023-04-23T21:07:17.080Z,77
2023-04-23T21:10:17.039Z,77
2023-04-23T21:13:17.034Z,77
2023-04-23T21:16:17.065Z,77
2023-04-23T21:19:17.029Z,77
2023-04-23T21:22:17.042Z,77
2023-04-23T21:25:17.037Z,77
2023-04-23T21:28:17.025Z,77
2023-04-23T21:31:17.044Z,77
2023-04-23T21:34:17.033Z,77
2023-04-23T21:37:17.026Z,77
2023-04-23T21:40:17.027Z,77
2023-04-23T21:43:17.030Z,77
2023-04-23T21:46:17.058Z,77
2023-04-23T21:49:17.027Z,77
2023-04-23T21:52:17.045Z,77
2023-04-23T21:55:17.027Z,77
2023-04-23T21:58:17.914Z,77
2023-04-23T22:01:17.077Z,77
2023-04-23T22:04:17.314Z,77
2023-04-23T22:07:17.035Z,77
2023-04-23T22:10:17.034Z,77
2023-04-23T22:13:17.036Z,77
2023-04-23T22:16:27.231Z,77
2023-04-23T22:19:17.027Z,77
2023-04-23T22:22:17.023Z,77
2023-04-23T22:25:17.017Z,77
2023-04-23T22:28:17.043Z,77
2023-04-23T22:31:17.037Z,77
2023-04-23T22:34:17.026Z,77
2023-04-23T22:37:17.019Z,77
2023-04-23T22:40:17.025Z,77
2023-04-23T22:43:17.026Z,77
2023-04-23T22:46:17.072Z,77
2023-04-23T22:49:17.018Z,77
2023-04-23T22:52:17.030Z,76
2023-04-23T22:55:17.006Z,76
2023-04-23T22:58:17.016Z,76
2023-04-23T23:01:17.053Z,76
2023-04-23T23:04:17.077Z,76
2023-04-23T23:07:17.012Z,76
2023-04-23T23:10:17.030Z,76
2023-04-23T23:13:17.004Z,76
2023-04-23T23:16:17.024Z,76
2023-04-23T23:19:17.007Z,76
2023-04-23T23:22:17.013Z,76
2023-04-23T23:25:17.009Z,76
2023-04-23T23:28:17.006Z,76
2023-04-23T23:31:17.114Z,76
2023-04-23T23:34:17.008Z,76
2023-04-23T23:37:17.013Z,76
2023-04-23T23:40:17.001Z,76
2023-04-23T23:43:16.998Z,76
2023-04-23T23:49:16.993Z,76
2023-04-23T23:52:17.012Z,76
2023-04-23T23:55:16.998Z,76
2023-04-23T23:58:16.992Z,76
